createdAt,value
2019-01-24T00:01:48.153Z,52.47
2019-01-24T00:04:24.366Z,62.73
2019-01-24T00:07:01.148Z,50.53
2019-01-24T00:09:40.590Z,53.40
2019-01-24T00:12:22.585Z,53.67
2019-01-24T00:14:59.152Z,53.30
2019-01-24T00:17:35.153Z,58.17
2019-01-24T00:20:10.159Z,52.03
2019-01-24T00:22:49.053Z,45.87
2019-01-24T00:25:25.728Z,52.77
2019-01-24T00:28:04.156Z,52.33
2019-01-24T00:30:41.161Z,46.13
2019-01-24T00:33:20.457Z,44.17
2019-01-24T00:35:56.509Z,57.67
2019-01-24T00:38:32.976Z,50.77
2019-01-24T00:41:10.058Z,47.17
2019-01-24T00:43:46.120Z,47.83
2019-01-24T00:46:22.582Z,56.47
2019-01-24T00:49:03.767Z,52.67
2019-01-24T00:51:43.503Z,49.20
2019-01-24T00:54:23.050Z,49.77
2019-01-24T00:57:00.163Z,52.07
2019-01-24T00:59:38.641Z,50.60
2019-01-24T01:02:18.590Z,49.53
2019-01-24T01:04:56.496Z,53.40
2019-01-24T01:07:37.467Z,53.57
2019-01-24T01:10:20.073Z,54.33
2019-01-24T01:12:58.999Z,50.90
2019-01-24T01:15:39.767Z,52.07
2019-01-24T01:18:28.112Z,48.93
2019-01-24T01:21:08.683Z,55.97
2019-01-24T01:23:51.170Z,57.17
2019-01-24T01:26:28.572Z,52.73
2019-01-24T01:29:12.008Z,50.20
2019-01-24T01:31:51.168Z,49.90
2019-01-24T01:34:36.145Z,60.00
2019-01-24T01:37:13.691Z,54.37
2019-01-24T01:43:22.124Z,44.43
2019-01-24T01:46:01.462Z,49.23
2019-01-24T01:48:43.672Z,46.07
2019-01-24T01:55:00.697Z,42.93
2019-01-24T01:57:37.574Z,45.30
2019-01-24T02:00:19.571Z,45.70
2019-01-24T02:06:13.175Z,48.57
2019-01-24T02:08:51.193Z,44.07
2019-01-24T02:11:30.086Z,46.43
2019-01-24T02:14:07.596Z,42.57
2019-01-24T02:16:44.662Z,42.90
2019-01-24T02:19:21.171Z,40.53
2019-01-24T02:21:57.387Z,40.50
2019-01-24T02:24:36.517Z,40.70
2019-01-24T02:27:14.182Z,40.73
2019-01-24T02:29:50.474Z,48.37
2019-01-24T02:32:27.977Z,49.00
2019-01-24T02:35:05.869Z,45.17
2019-01-24T02:37:41.723Z,40.47
2019-01-24T02:40:21.467Z,53.57
2019-01-24T02:42:59.568Z,43.13
2019-01-24T02:45:42.387Z,40.40
2019-01-24T02:48:18.648Z,42.20
2019-01-24T02:50:55.730Z,43.50
2019-01-24T02:53:35.883Z,36.17
2019-01-24T02:56:15.011Z,41.10
2019-01-24T02:58:54.182Z,39.73
2019-01-24T03:01:35.115Z,39.23
2019-01-24T03:04:17.177Z,41.93
2019-01-24T03:06:52.180Z,41.50
2019-01-24T03:09:31.683Z,48.23
2019-01-24T03:12:10.606Z,42.37
2019-01-24T03:14:47.689Z,40.20
2019-01-24T03:17:24.772Z,43.23
2019-01-24T03:20:02.192Z,40.43
2019-01-24T03:22:39.184Z,31.37
2019-01-24T03:25:14.785Z,30.47
2019-01-24T03:27:53.098Z,40.20
2019-01-24T03:30:29.771Z,35.33
2019-01-24T03:33:12.207Z,34.50
2019-01-24T03:35:54.581Z,33.87
2019-01-24T03:38:36.990Z,38.50
2019-01-24T03:41:20.418Z,45.13
2019-01-24T03:44:00.191Z,36.30
2019-01-24T03:46:49.121Z,32.60
2019-01-24T03:49:31.036Z,31.93
2019-01-24T03:52:19.877Z,35.33
2019-01-24T03:55:04.750Z,33.87
2019-01-24T03:57:43.464Z,36.70
2019-01-24T04:00:25.661Z,30.73
2019-01-24T04:03:07.186Z,35.17
2019-01-24T04:05:46.783Z,33.03
2019-01-24T04:12:08.637Z,34.80
2019-01-24T04:14:48.685Z,35.63
2019-01-24T04:17:30.475Z,33.07
2019-01-24T04:23:48.544Z,39.53
2019-01-24T04:26:31.968Z,32.30
2019-01-24T04:29:11.316Z,36.27
2019-01-24T04:31:47.198Z,35.97
2019-01-24T04:34:21.195Z,35.37
2019-01-24T04:40:33.900Z,35.73
2019-01-24T04:46:42.128Z,35.63
2019-01-24T04:49:19.826Z,42.53
2019-01-24T04:51:58.748Z,32.90
2019-01-24T04:54:34.606Z,35.57
2019-01-24T04:57:12.710Z,33.60
2019-01-24T04:59:51.427Z,36.57
2019-01-24T05:02:30.198Z,43.83
2019-01-24T05:05:13.995Z,41.17
2019-01-24T05:07:51.072Z,35.23
2019-01-24T05:10:29.797Z,39.23
2019-01-24T05:13:12.812Z,34.60
2019-01-24T05:15:51.734Z,40.80
2019-01-24T05:18:43.976Z,40.20
2019-01-24T05:21:35.807Z,36.47
2019-01-24T05:24:15.204Z,46.53
2019-01-24T05:26:57.743Z,39.03
2019-01-24T05:29:41.205Z,44.90
2019-01-24T05:32:26.160Z,38.67
2019-01-24T05:35:02.709Z,44.63
2019-01-24T05:37:40.615Z,47.63
2019-01-24T05:46:16.211Z,59.27
2019-01-24T05:48:53.208Z,43.33
2019-01-24T05:51:27.214Z,47.17
2019-01-24T05:54:06.729Z,39.73
2019-01-24T05:56:44.622Z,52.60
2019-01-24T05:59:22.213Z,51.77
2019-01-24T06:02:04.858Z,54.37
2019-01-24T06:04:48.565Z,50.73
2019-01-24T06:07:29.129Z,51.10
2019-01-24T06:10:13.785Z,46.60
2019-01-24T06:13:20.639Z,41.23
2019-01-24T06:15:57.030Z,53.27
2019-01-24T06:18:40.892Z,47.03
2019-01-24T06:21:20.244Z,46.70
2019-01-24T06:24:25.763Z,46.93
2019-01-24T06:27:28.641Z,48.93
2019-01-24T06:34:00.339Z,36.53
2019-01-24T06:40:55.964Z,50.47
2019-01-24T06:47:28.388Z,40.33
2019-01-24T06:50:36.773Z,41.70
2019-01-24T06:54:11.386Z,38.63
2019-01-24T06:57:19.615Z,38.90
2019-01-24T07:03:42.581Z,33.67
2019-01-24T07:10:02.906Z,36.60
2019-01-24T07:12:40.425Z,33.30
2019-01-24T07:15:32.018Z,34.90
2019-01-24T07:18:13.809Z,32.13
2019-01-24T07:20:56.011Z,32.07
2019-01-24T07:27:06.290Z,32.33
2019-01-24T07:36:22.321Z,38.33
2019-01-24T07:42:55.547Z,32.43
2019-01-24T07:45:38.148Z,37.07
2019-01-24T07:48:21.414Z,38.97
2019-01-24T07:54:40.065Z,38.13
2019-01-24T08:00:45.821Z,31.13
2019-01-24T08:06:54.986Z,33.60
2019-01-24T08:09:43.216Z,36.40
2019-01-24T08:12:32.420Z,38.57
2019-01-24T08:18:41.840Z,34.73
2019-01-24T08:21:41.861Z,36.73
2019-01-24T08:24:26.110Z,39.60
2019-01-24T08:30:44.173Z,38.60
2019-01-24T08:33:46.034Z,35.77
2019-01-24T08:36:27.454Z,42.10
2019-01-24T08:39:14.522Z,35.90
2019-01-24T08:42:14.143Z,40.87
2019-01-24T08:45:00.029Z,39.97
2019-01-24T08:47:39.977Z,41.73
2019-01-24T08:50:34.431Z,36.17
2019-01-24T08:53:16.864Z,40.83
2019-01-24T08:59:44.968Z,41.57
2019-01-24T09:02:28.399Z,37.03
2019-01-24T09:05:11.011Z,41.17
2019-01-24T09:07:50.347Z,36.00
2019-01-24T09:10:31.931Z,41.40
2019-01-24T09:13:18.025Z,39.57
2019-01-24T09:16:06.165Z,46.80
2019-01-24T09:19:01.063Z,39.67
2019-01-24T09:21:38.972Z,43.47
2019-01-24T09:24:24.239Z,39.20
2019-01-24T09:27:02.437Z,42.80
2019-01-24T09:29:44.954Z,43.07
2019-01-24T09:32:32.075Z,40.00
2019-01-24T09:35:18.434Z,44.13
2019-01-24T09:37:59.457Z,39.00
2019-01-24T09:40:41.952Z,47.80
2019-01-24T09:43:33.790Z,54.53
2019-01-24T09:46:14.445Z,44.40
2019-01-24T09:48:57.994Z,44.20
2019-01-24T09:58:12.781Z,45.43
2019-01-24T10:01:06.053Z,44.43
2019-01-24T10:03:57.263Z,43.77
2019-01-24T10:07:07.311Z,51.30
2019-01-24T10:13:16.977Z,46.87
2019-01-24T10:16:04.319Z,47.53
2019-01-24T10:18:49.373Z,45.40
2019-01-24T10:21:27.879Z,46.07
2019-01-24T10:24:06.804Z,48.03
2019-01-24T10:26:46.752Z,42.03
2019-01-24T10:29:33.256Z,44.00
2019-01-24T10:32:21.496Z,51.13
2019-01-24T10:35:01.958Z,44.50
2019-01-24T10:37:42.318Z,45.43
2019-01-24T10:40:29.052Z,46.33
2019-01-24T10:43:13.080Z,37.97
2019-01-24T10:46:00.406Z,45.40
2019-01-24T10:54:52.058Z,44.80
2019-01-24T10:57:50.226Z,45.30
2019-01-24T11:06:49.994Z,50.83
2019-01-24T11:09:27.365Z,48.73
2019-01-24T11:12:04.508Z,55.00
2019-01-24T11:14:42.963Z,55.97
2019-01-24T11:17:22.091Z,52.17
2019-01-24T11:24:00.018Z,42.47
2019-01-24T11:26:36.514Z,47.10
2019-01-24T11:29:11.723Z,42.03
2019-01-24T11:35:19.134Z,49.70
2019-01-24T11:37:59.492Z,42.23
2019-01-24T11:40:39.501Z,43.07
2019-01-24T11:46:58.937Z,33.50
2019-01-24T11:49:37.043Z,38.33
2019-01-24T11:52:13.101Z,34.83
2019-01-24T11:58:29.930Z,27.43
2019-01-24T12:01:06.509Z,27.57
2019-01-24T12:03:44.101Z,25.53
2019-01-24T12:10:03.504Z,23.73
2019-01-24T12:12:39.510Z,26.43
2019-01-24T12:15:21.509Z,32.17
2019-01-24T12:18:00.987Z,27.03
2019-01-24T12:20:38.879Z,27.00
2019-01-24T12:26:55.913Z,26.03
2019-01-24T12:33:01.072Z,30.93
2019-01-24T12:35:37.128Z,25.70
2019-01-24T12:38:14.007Z,26.37
2019-01-24T12:40:50.509Z,23.23
2019-01-24T12:43:27.350Z,24.97
2019-01-24T12:46:06.287Z,25.10
2019-01-24T12:48:41.935Z,23.50
2019-01-24T12:51:21.515Z,20.53
2019-01-24T12:53:57.927Z,28.60
2019-01-24T12:56:36.034Z,25.10
2019-01-24T12:59:11.518Z,29.80
2019-01-24T13:01:48.151Z,25.23
2019-01-24T13:04:29.124Z,32.70
2019-01-24T13:07:07.842Z,29.97
2019-01-24T13:09:44.542Z,30.27
2019-01-24T13:12:26.103Z,33.13
2019-01-24T13:18:46.628Z,38.77
2019-01-24T13:25:18.678Z,37.40
2019-01-24T13:27:54.873Z,29.97
2019-01-24T13:30:31.577Z,40.20
2019-01-24T13:36:48.781Z,33.53
2019-01-24T13:43:07.557Z,39.03
2019-01-24T13:49:23.883Z,29.50
2019-01-24T13:55:05.124Z,30.57
2019-01-24T14:01:22.726Z,27.43
2019-01-24T14:03:52.846Z,31.07
2019-01-24T14:09:45.132Z,31.30
2019-01-24T14:16:08.690Z,22.13
2019-01-24T14:22:26.546Z,28.13
2019-01-24T14:25:02.130Z,30.83
2019-01-24T14:27:38.666Z,28.27
2019-01-24T14:33:55.495Z,36.07
2019-01-24T14:40:17.146Z,34.10
2019-01-24T14:42:52.695Z,34.97
2019-01-24T14:45:29.143Z,33.13
2019-01-24T14:51:33.695Z,33.63
2019-01-24T14:57:13.868Z,32.43
2019-01-24T15:03:19.027Z,41.63
2019-01-24T15:09:23.202Z,30.53
2019-01-24T15:12:01.061Z,30.50
2019-01-24T15:14:35.684Z,28.40
2019-01-24T15:20:39.612Z,51.80
2019-01-24T15:26:44.566Z,30.90
2019-01-24T15:32:51.771Z,41.70
2019-01-24T15:39:13.111Z,36.83
2019-01-24T15:41:48.763Z,37.30
2019-01-24T15:44:28.710Z,43.27
2019-01-24T15:50:48.405Z,37.33
2019-01-24T15:53:25.200Z,40.33
2019-01-24T15:56:03.242Z,53.00
2019-01-24T15:58:41.700Z,36.03
2019-01-24T16:01:19.804Z,34.67
2019-01-24T16:03:59.203Z,34.10
2019-01-24T16:06:36.427Z,33.97
2019-01-24T16:09:16.363Z,36.47
2019-01-24T16:11:53.457Z,39.33
2019-01-24T16:14:32.788Z,35.37
2019-01-24T16:17:09.666Z,45.77
2019-01-24T16:19:55.759Z,41.63
2019-01-24T16:22:34.481Z,43.73
2019-01-24T16:28:44.770Z,36.87
2019-01-24T16:31:22.862Z,33.93
2019-01-24T16:37:36.326Z,45.80
2019-01-24T16:43:45.467Z,41.77
2019-01-24T16:46:24.814Z,34.37
2019-01-24T16:49:06.423Z,37.10
2019-01-24T16:51:41.013Z,37.83
2019-01-24T16:54:15.495Z,34.40
2019-01-24T16:56:51.528Z,33.53
2019-01-24T16:59:31.504Z,35.37
2019-01-24T17:02:07.090Z,45.30
2019-01-24T17:04:46.495Z,38.07
2019-01-24T17:07:21.495Z,37.07
2019-01-24T17:09:57.105Z,42.13
2019-01-24T17:12:37.055Z,33.03
2019-01-24T17:15:13.927Z,40.33
2019-01-24T17:17:56.046Z,35.87
2019-01-24T17:20:32.185Z,37.57
2019-01-24T17:23:14.801Z,33.73
2019-01-24T17:25:52.084Z,38.07
2019-01-24T17:32:23.250Z,36.50
2019-01-24T17:38:43.804Z,42.43
2019-01-24T17:41:25.798Z,34.77
2019-01-24T17:47:32.805Z,28.33
2019-01-24T17:53:39.802Z,30.23
2019-01-24T17:56:20.331Z,36.27
2019-01-24T17:58:56.390Z,32.63
2019-01-24T18:05:02.368Z,54.67
2019-01-24T18:15:11.237Z,33.23
2019-01-24T18:21:29.299Z,33.60
2019-01-24T18:27:48.179Z,23.10
2019-01-24T18:30:27.313Z,32.57
2019-01-24T18:33:04.797Z,29.33
2019-01-24T18:39:21.015Z,44.67
2019-01-24T18:41:59.739Z,30.17
2019-01-24T18:44:48.287Z,38.70
2019-01-24T18:51:05.321Z,33.87
2019-01-24T18:57:14.833Z,26.63
2019-01-24T18:59:51.249Z,36.93
2019-01-24T19:02:29.168Z,38.10
2019-01-24T19:08:36.355Z,37.07
2019-01-24T19:11:13.232Z,38.00
2019-01-24T19:13:51.339Z,40.80
2019-01-24T19:16:31.696Z,38.93
2019-01-24T19:19:15.333Z,40.23
2019-01-24T19:22:05.521Z,31.53
2019-01-24T19:24:40.758Z,26.83
2019-01-24T19:27:16.611Z,29.37
2019-01-24T19:29:56.563Z,33.20
2019-01-24T19:39:16.701Z,31.03
2019-01-24T19:45:13.112Z,37.53
2019-01-24T20:00:52.873Z,39.13
2019-01-24T20:06:47.582Z,33.53
2019-01-24T20:19:05.389Z,36.27
2019-01-24T20:21:58.532Z,35.80
2019-01-24T20:25:07.534Z,39.57
2019-01-24T20:27:52.118Z,39.20
2019-01-24T20:30:35.655Z,34.50
2019-01-24T20:33:44.680Z,48.00
2019-01-24T20:40:19.737Z,35.13
2019-01-24T20:54:05.491Z,29.57
2019-01-24T20:56:53.632Z,29.40
2019-01-24T21:13:38.138Z,28.37
2019-01-24T21:22:42.081Z,33.30
2019-01-24T21:25:27.807Z,26.93
2019-01-24T21:28:06.528Z,25.13
2019-01-24T21:31:20.690Z,25.53
2019-01-24T21:34:02.674Z,23.70
2019-01-24T21:36:44.058Z,27.90
2019-01-24T21:46:15.231Z,27.90
2019-01-24T21:48:54.784Z,25.00
2019-01-24T21:51:42.105Z,28.40
2019-01-24T22:11:21.046Z,28.53
2019-01-24T22:26:55.844Z,31.80
2019-01-24T22:33:47.231Z,33.07
2019-01-24T22:41:07.606Z,26.07
2019-01-24T22:44:02.712Z,20.20
2019-01-24T23:22:59.269Z,26.47
2019-01-24T23:25:32.664Z,24.77
2019-01-24T23:32:18.988Z,31.57
2019-01-24T23:50:45.555Z,27.83
